createdAt,value
2022-10-23T00:01:14.149Z,6.60
2022-10-23T00:03:42.131Z,7.17
2022-10-23T00:06:11.847Z,9.80
2022-10-23T00:08:40.242Z,7.80
2022-10-23T00:11:09.108Z,9.80
2022-10-23T00:13:36.941Z,6.30
2022-10-23T00:16:05.285Z,13.20
2022-10-23T00:18:33.120Z,5.67
2022-10-23T00:21:00.981Z,7.13
2022-10-23T00:23:30.197Z,8.73
2022-10-23T00:25:58.115Z,5.90
2022-10-23T00:28:25.966Z,5.23
2022-10-23T00:30:53.989Z,5.10
2022-10-23T00:33:22.097Z,4.47
2022-10-23T00:35:49.884Z,6.20
2022-10-23T00:38:17.699Z,8.03
2022-10-23T00:40:47.109Z,6.60
2022-10-23T00:43:20.592Z,4.93
2022-10-23T00:45:48.477Z,6.80
2022-10-23T00:48:16.993Z,4.77
2022-10-23T00:50:45.566Z,5.80
2022-10-23T00:53:14.695Z,6.07
2022-10-23T00:55:46.740Z,6.53
2022-10-23T00:58:17.599Z,5.70
2022-10-23T01:00:49.116Z,5.60
2022-10-23T01:03:19.442Z,4.30
2022-10-23T01:05:52.001Z,9.43
2022-10-23T01:08:25.682Z,9.60
2022-10-23T01:10:57.188Z,7.10
2022-10-23T01:13:36.180Z,7.47
2022-10-23T01:16:09.150Z,7.10
2022-10-23T01:18:42.565Z,5.10
2022-10-23T01:21:14.509Z,5.60
2022-10-23T01:24:09.880Z,5.90
2022-10-23T01:26:51.424Z,6.60
2022-10-23T01:29:26.356Z,5.40
2022-10-23T01:31:59.981Z,6.80
2022-10-23T01:34:32.531Z,7.43
2022-10-23T01:37:02.361Z,6.60
2022-10-23T01:39:35.346Z,4.73
2022-10-23T01:42:09.674Z,3.87
2022-10-23T01:44:43.591Z,5.80
2022-10-23T01:47:14.058Z,4.73
2022-10-23T01:49:43.798Z,5.03
2022-10-23T01:52:15.006Z,7.53
2022-10-23T01:54:45.883Z,6.47
2022-10-23T01:57:17.225Z,4.97
2022-10-23T01:59:50.402Z,4.13
2022-10-23T02:02:20.003Z,5.13
2022-10-23T02:04:54.369Z,3.80
2022-10-23T02:07:22.438Z,8.63
2022-10-23T02:09:50.412Z,12.60
2022-10-23T02:12:30.184Z,6.17
2022-10-23T02:15:04.457Z,5.80
2022-10-23T02:17:40.958Z,15.73
2022-10-23T02:20:17.955Z,5.17
2022-10-23T02:22:55.292Z,4.27
2022-10-23T02:25:29.172Z,5.40
2022-10-23T02:27:59.211Z,4.60
2022-10-23T02:30:31.054Z,6.33
2022-10-23T02:32:59.526Z,5.87
2022-10-23T02:35:27.641Z,6.43
2022-10-23T02:37:55.798Z,4.73
2022-10-23T02:40:25.281Z,5.40
2022-10-23T02:42:58.780Z,4.70
2022-10-23T02:45:33.142Z,4.80
2022-10-23T02:48:05.385Z,4.23
2022-10-23T02:50:38.795Z,10.53
2022-10-23T02:53:14.828Z,8.20
2022-10-23T02:55:54.099Z,3.50
2022-10-23T02:58:28.226Z,5.83
2022-10-23T03:01:03.245Z,4.70
2022-10-23T03:03:34.368Z,3.20
2022-10-23T03:06:02.533Z,9.20
2022-10-23T03:08:30.411Z,4.10
2022-10-23T03:10:58.263Z,4.17
2022-10-23T03:13:26.048Z,7.13
2022-10-23T03:15:53.797Z,3.70
2022-10-23T03:18:22.953Z,4.70
2022-10-23T03:20:50.923Z,3.40
2022-10-23T03:23:18.752Z,4.17
2022-10-23T03:25:46.514Z,3.33
2022-10-23T03:28:17.336Z,4.70
2022-10-23T03:30:45.143Z,6.63
2022-10-23T03:33:12.869Z,5.20
2022-10-23T03:35:42.104Z,4.10
2022-10-23T03:38:09.939Z,4.03
2022-10-23T03:40:37.748Z,6.30
2022-10-23T03:43:05.576Z,3.37
2022-10-23T03:45:33.414Z,3.50
2022-10-23T03:48:01.261Z,4.00
2022-10-23T03:50:28.989Z,3.70
2022-10-23T03:52:58.129Z,4.27
2022-10-23T03:55:27.074Z,9.83
2022-10-23T03:57:55.050Z,4.40
2022-10-23T04:00:23.106Z,6.03
2022-10-23T04:02:50.859Z,3.60
2022-10-23T04:05:18.869Z,4.63
2022-10-23T04:07:46.721Z,7.93
2022-10-23T04:10:15.869Z,5.17
2022-10-23T04:12:44.131Z,4.80
2022-10-23T04:15:12.289Z,4.70
2022-10-23T04:17:40.120Z,5.10
2022-10-23T04:20:08.228Z,3.40
2022-10-23T04:22:36.017Z,3.97
2022-10-23T04:25:04.005Z,4.73
2022-10-23T04:27:34.297Z,5.07
2022-10-23T04:30:03.597Z,3.57
2022-10-23T04:32:31.427Z,3.10
2022-10-23T04:34:59.165Z,3.37
2022-10-23T04:37:27.977Z,3.60
2022-10-23T04:39:55.781Z,3.70
2022-10-23T04:42:23.593Z,6.70
2022-10-23T04:44:52.775Z,3.03
2022-10-23T04:47:20.505Z,3.17
2022-10-23T04:49:48.297Z,4.70
2022-10-23T04:52:16.414Z,6.03
2022-10-23T04:54:44.220Z,8.97
2022-10-23T04:57:12.027Z,4.43
2022-10-23T04:59:39.838Z,5.13
2022-10-23T05:02:08.985Z,3.67
2022-10-23T05:04:36.760Z,3.80
2022-10-23T05:07:04.531Z,3.57
2022-10-23T05:09:32.393Z,3.20
2022-10-23T05:12:00.156Z,2.97
2022-10-23T05:14:27.942Z,3.50
2022-10-23T05:17:01.612Z,3.07
2022-10-23T05:19:35.554Z,5.73
2022-10-23T05:22:05.347Z,4.33
2022-10-23T05:24:33.135Z,5.67
2022-10-23T05:27:01.081Z,4.07
2022-10-23T05:29:28.811Z,3.20
2022-10-23T05:32:00.780Z,9.00
2022-10-23T05:34:31.605Z,3.77
2022-10-23T05:36:59.460Z,4.90
2022-10-23T05:39:27.790Z,4.53
2022-10-23T05:41:56.051Z,3.20
2022-10-23T05:44:23.781Z,5.10
2022-10-23T05:46:51.524Z,2.97
2022-10-23T05:49:19.544Z,2.63
2022-10-23T05:51:48.668Z,3.63
2022-10-23T05:54:16.445Z,6.30
2022-10-23T05:56:44.393Z,3.63
2022-10-23T05:59:12.201Z,4.60
2022-10-23T06:01:40.139Z,6.53
2022-10-23T06:04:08.080Z,5.53
2022-10-23T06:06:36.689Z,5.77
2022-10-23T06:09:06.234Z,7.30
2022-10-23T06:11:33.973Z,3.57
2022-10-23T06:14:01.893Z,3.97
2022-10-23T06:16:29.642Z,4.10
2022-10-23T06:18:57.959Z,3.03
2022-10-23T06:21:25.984Z,3.70
2022-10-23T06:23:53.750Z,4.27
2022-10-23T06:26:22.921Z,4.77
2022-10-23T06:28:50.733Z,3.07
2022-10-23T06:31:20.314Z,3.03
2022-10-23T06:33:48.071Z,2.60
2022-10-23T06:36:15.848Z,4.67
2022-10-23T06:38:43.645Z,4.13
2022-10-23T06:41:15.191Z,2.40
2022-10-23T06:43:44.460Z,7.40
2022-10-23T06:46:12.203Z,3.70
2022-10-23T06:48:41.941Z,3.07
2022-10-23T06:51:12.791Z,4.20
2022-10-23T06:53:40.785Z,3.83
2022-10-23T06:56:09.378Z,4.20
2022-10-23T06:58:39.562Z,3.63
2022-10-23T07:01:12.542Z,3.27
2022-10-23T07:03:40.932Z,3.50
2022-10-23T07:06:10.488Z,2.70
2022-10-23T07:08:38.478Z,4.07
2022-10-23T07:11:08.092Z,6.93
2022-10-23T07:13:37.020Z,4.10
2022-10-23T07:16:13.443Z,5.53
2022-10-23T07:18:41.479Z,3.63
2022-10-23T07:21:09.632Z,3.90
2022-10-23T07:23:37.463Z,4.03
2022-10-23T07:26:08.117Z,5.60
2022-10-23T07:28:35.981Z,6.00
2022-10-23T07:31:04.130Z,4.60
2022-10-23T07:33:33.287Z,3.57
2022-10-23T07:36:01.292Z,3.73
2022-10-23T07:38:29.101Z,3.50
2022-10-23T07:40:59.128Z,3.50
2022-10-23T07:43:27.013Z,3.60
2022-10-23T07:45:55.309Z,4.57
2022-10-23T07:48:23.807Z,4.93
2022-10-23T07:50:52.945Z,4.70
2022-10-23T07:53:22.829Z,4.73
2022-10-23T07:55:54.863Z,5.87
2022-10-23T07:58:23.163Z,3.73
2022-10-23T08:00:55.738Z,3.30
2022-10-23T08:03:23.510Z,3.30
2022-10-23T08:05:53.605Z,4.60
2022-10-23T08:08:21.779Z,3.07
2022-10-23T08:10:50.764Z,4.30
2022-10-23T08:13:20.322Z,16.33
2022-10-23T08:15:49.398Z,5.90
2022-10-23T08:18:17.895Z,2.83
2022-10-23T08:20:47.456Z,3.23
2022-10-23T08:23:18.634Z,3.10
2022-10-23T08:25:47.233Z,3.23
2022-10-23T08:28:15.637Z,2.93
2022-10-23T08:30:43.485Z,9.37
2022-10-23T08:33:11.276Z,5.03
2022-10-23T08:35:39.393Z,2.63
2022-10-23T08:38:08.238Z,4.37
2022-10-23T08:40:37.549Z,5.30
2022-10-23T08:43:13.577Z,3.00
2022-10-23T08:45:45.801Z,5.80
2022-10-23T08:48:20.820Z,2.90
2022-10-23T08:50:53.613Z,2.40
2022-10-23T08:53:26.273Z,5.53
2022-10-23T08:56:00.693Z,2.70
2022-10-23T08:58:36.067Z,3.50
2022-10-23T09:01:18.420Z,3.40
2022-10-23T09:03:46.386Z,3.00
2022-10-23T09:06:21.025Z,2.37
2022-10-23T09:08:58.225Z,3.53
2022-10-23T09:11:33.846Z,2.50
2022-10-23T09:14:35.779Z,2.17
2022-10-23T09:19:47.314Z,3.10
2022-10-23T09:22:15.312Z,2.70
2022-10-23T09:24:44.684Z,2.90
2022-10-23T09:27:17.740Z,2.60
2022-10-23T09:29:49.783Z,6.73
2022-10-23T09:32:17.779Z,2.80
2022-10-23T09:34:54.090Z,2.63
2022-10-23T09:37:24.776Z,3.87
2022-10-23T09:40:04.090Z,2.23
2022-10-23T09:42:33.225Z,2.30
2022-10-23T09:45:01.733Z,3.67
2022-10-23T09:47:29.605Z,2.20
2022-10-23T09:50:00.002Z,2.63
2022-10-23T09:52:35.874Z,2.63
2022-10-23T09:55:19.760Z,3.00
2022-10-23T09:57:52.962Z,2.77
2022-10-23T10:00:23.587Z,2.23
2022-10-23T10:02:59.638Z,2.97
2022-10-23T10:05:30.611Z,2.23
2022-10-23T10:08:04.414Z,2.47
2022-10-23T10:10:38.245Z,2.87
2022-10-23T10:13:22.554Z,2.40
2022-10-23T10:15:55.772Z,2.63
2022-10-23T10:18:29.307Z,3.23
2022-10-23T10:21:09.440Z,5.03
2022-10-23T10:23:46.984Z,2.43
2022-10-23T10:26:25.197Z,3.83
2022-10-23T10:29:03.624Z,4.27
2022-10-23T10:31:42.590Z,2.80
2022-10-23T10:34:19.307Z,2.30
2022-10-23T10:36:53.862Z,2.50
2022-10-23T10:39:39.597Z,3.17
2022-10-23T10:42:37.994Z,2.47
2022-10-23T10:45:19.206Z,4.20
2022-10-23T10:47:57.706Z,2.27
2022-10-23T10:50:31.665Z,2.10
2022-10-23T10:53:10.113Z,2.83
2022-10-23T10:55:41.920Z,2.30
2022-10-23T10:58:16.584Z,2.77
2022-10-23T11:00:47.407Z,2.43
2022-10-23T11:03:28.064Z,7.77
2022-10-23T11:08:44.617Z,8.13
2022-10-23T11:11:29.115Z,2.40
2022-10-23T11:13:57.574Z,3.03
2022-10-23T11:16:29.821Z,4.07
2022-10-23T11:19:06.682Z,3.00
2022-10-23T11:21:42.512Z,2.70
2022-10-23T11:24:54.510Z,2.30
2022-10-23T11:27:47.656Z,2.60
2022-10-23T11:30:23.444Z,2.10
2022-10-23T11:33:17.962Z,2.70
2022-10-23T11:36:06.989Z,2.50
2022-10-23T11:38:36.082Z,2.30
2022-10-23T11:41:07.073Z,2.60
2022-10-23T11:43:48.440Z,2.70
2022-10-23T11:46:29.393Z,8.33
2022-10-23T11:49:02.227Z,3.43
2022-10-23T11:51:32.497Z,4.10
2022-10-23T11:54:24.750Z,3.20
2022-10-23T11:56:56.728Z,4.10
2022-10-23T11:59:29.094Z,2.20
2022-10-23T12:01:59.077Z,5.43
2022-10-23T12:04:33.790Z,2.60
2022-10-23T12:07:05.391Z,9.63
2022-10-23T12:09:41.089Z,2.90
2022-10-23T12:12:30.570Z,4.70
2022-10-23T12:15:19.994Z,3.17
2022-10-23T12:17:49.693Z,2.57
2022-10-23T12:20:26.650Z,2.87
2022-10-23T12:23:16.911Z,5.50
2022-10-23T12:25:58.567Z,2.50
2022-10-23T12:28:35.333Z,2.60
2022-10-23T12:31:17.515Z,2.73
2022-10-23T12:33:53.989Z,4.10
2022-10-23T12:36:35.548Z,4.67
2022-10-23T12:39:03.464Z,2.83
2022-10-23T12:41:35.790Z,3.30
2022-10-23T12:44:06.190Z,3.90
2022-10-23T12:46:36.757Z,3.90
2022-10-23T12:49:13.650Z,2.77
2022-10-23T12:51:42.934Z,2.60
2022-10-23T12:54:18.357Z,5.50
2022-10-23T12:56:46.830Z,2.43
2022-10-23T12:59:19.750Z,6.00
2022-10-23T13:01:52.429Z,5.50
2022-10-23T13:04:28.985Z,3.60
2022-10-23T13:07:00.185Z,7.20
2022-10-23T13:09:31.619Z,3.07
2022-10-23T13:12:00.491Z,4.00
2022-10-23T13:14:34.772Z,6.93
2022-10-23T13:17:04.278Z,4.50
2022-10-23T13:19:32.320Z,2.70
2022-10-23T13:22:04.138Z,4.13
2022-10-23T13:24:32.863Z,3.80
2022-10-23T13:27:00.812Z,2.67
2022-10-23T13:29:31.759Z,2.90
2022-10-23T13:32:12.685Z,4.07
2022-10-23T13:34:40.624Z,5.43
2022-10-23T13:37:28.963Z,2.90
2022-10-23T13:40:03.946Z,5.07
2022-10-23T13:42:32.140Z,3.10
2022-10-23T13:45:00.189Z,4.60
2022-10-23T13:47:28.318Z,3.57
2022-10-23T13:49:56.458Z,3.10
2022-10-23T13:52:25.771Z,3.43
2022-10-23T13:54:54.040Z,2.83
2022-10-23T13:57:22.208Z,2.60
2022-10-23T13:59:50.329Z,7.80
2022-10-23T14:02:22.518Z,4.37
2022-10-23T14:04:51.681Z,2.30
2022-10-23T14:07:20.056Z,2.93
2022-10-23T14:09:50.623Z,4.47
2022-10-23T14:12:19.029Z,3.73
2022-10-23T14:14:51.462Z,3.27
2022-10-23T14:17:19.526Z,2.70
2022-10-23T14:19:47.639Z,5.63
2022-10-23T14:22:15.958Z,8.40
2022-10-23T14:24:44.020Z,3.90
2022-10-23T14:27:13.717Z,2.40
2022-10-23T14:29:42.285Z,8.03
2022-10-23T14:32:10.275Z,2.90
2022-10-23T14:34:42.342Z,4.40
2022-10-23T14:37:10.350Z,2.90
2022-10-23T14:39:42.660Z,3.17
2022-10-23T14:42:16.333Z,6.93
2022-10-23T14:44:44.965Z,3.90
2022-10-23T14:47:13.162Z,3.50
2022-10-23T14:49:41.221Z,2.80
2022-10-23T14:52:09.800Z,2.80
2022-10-23T14:54:38.519Z,4.27
2022-10-23T14:57:20.387Z,4.03
2022-10-23T14:59:50.362Z,5.83
2022-10-23T15:02:18.874Z,2.70
2022-10-23T15:04:46.806Z,3.40
2022-10-23T15:07:14.877Z,3.53
2022-10-23T15:09:45.630Z,3.10
2022-10-23T15:12:14.779Z,4.10
2022-10-23T15:14:42.556Z,7.03
2022-10-23T15:17:15.370Z,5.83
2022-10-23T15:19:43.744Z,3.73
2022-10-23T15:22:13.741Z,2.50
2022-10-23T15:24:41.513Z,2.97
2022-10-23T15:29:42.168Z,5.13
2022-10-23T15:32:12.388Z,3.43
2022-10-23T15:34:42.626Z,6.27
2022-10-23T15:37:11.253Z,2.57
2022-10-23T15:39:39.082Z,3.57
2022-10-23T15:42:07.658Z,3.90
2022-10-23T15:44:35.688Z,3.17
2022-10-23T15:47:03.581Z,3.87
2022-10-23T15:49:33.192Z,3.37
2022-10-23T15:52:02.201Z,3.70
2022-10-23T15:54:32.660Z,3.13
2022-10-23T15:57:01.705Z,5.17
2022-10-23T15:59:31.212Z,6.53
2022-10-23T16:01:59.532Z,3.53
2022-10-23T16:04:28.438Z,7.57
2022-10-23T16:06:57.694Z,3.10
2022-10-23T16:09:25.433Z,4.43
2022-10-23T16:11:53.207Z,4.83
2022-10-23T16:14:20.976Z,3.90
2022-10-23T16:16:48.750Z,3.03
2022-10-23T16:19:16.533Z,2.60
2022-10-23T16:21:44.389Z,6.20
2022-10-23T16:24:13.524Z,5.13
2022-10-23T16:26:41.743Z,4.00
2022-10-23T16:29:10.417Z,3.63
2022-10-23T16:31:38.525Z,3.30
2022-10-23T16:34:06.604Z,3.43
2022-10-23T16:36:35.317Z,3.83
2022-10-23T16:39:04.311Z,4.90
2022-10-23T16:41:33.561Z,3.53
2022-10-23T16:44:01.442Z,5.20
2022-10-23T16:46:29.577Z,4.13
2022-10-23T16:48:57.524Z,2.80
2022-10-23T16:51:27.265Z,5.77
2022-10-23T16:53:55.073Z,3.50
2022-10-23T16:56:24.810Z,3.43
2022-10-23T16:58:53.913Z,3.77
2022-10-23T17:01:23.730Z,3.10
2022-10-23T17:03:53.352Z,4.60
2022-10-23T17:06:22.909Z,6.07
2022-10-23T17:08:52.042Z,4.97
2022-10-23T17:11:22.525Z,3.83
2022-10-23T17:13:58.556Z,4.20
2022-10-23T17:16:29.680Z,4.80
2022-10-23T17:18:57.974Z,4.23
2022-10-23T17:21:25.814Z,7.33
2022-10-23T17:23:53.838Z,8.50
2022-10-23T17:26:24.437Z,4.30
2022-10-23T17:28:53.529Z,3.40
2022-10-23T17:31:23.288Z,4.30
2022-10-23T17:33:53.659Z,4.07
2022-10-23T17:36:21.996Z,7.20
2022-10-23T17:38:50.107Z,3.90
2022-10-23T17:41:20.313Z,4.60
2022-10-23T17:43:48.124Z,6.40
2022-10-23T17:46:18.801Z,10.50
2022-10-23T17:48:46.640Z,6.40
2022-10-23T17:51:16.772Z,6.83
2022-10-23T17:53:47.136Z,10.10
2022-10-23T17:56:18.968Z,20.27
2022-10-23T17:58:47.097Z,20.07
2022-10-23T18:01:18.476Z,27.27
2022-10-23T18:03:46.268Z,14.00
2022-10-23T18:06:16.384Z,15.93
2022-10-23T18:08:45.097Z,9.83
2022-10-23T18:11:17.166Z,11.10
2022-10-23T18:13:46.126Z,5.00
2022-10-23T18:16:15.023Z,5.33
2022-10-23T18:18:48.039Z,6.63
2022-10-23T18:21:17.002Z,9.87
2022-10-23T18:23:44.824Z,8.50
2022-10-23T18:26:16.962Z,7.03
2022-10-23T18:28:45.260Z,7.83
2022-10-23T18:31:14.709Z,13.10
2022-10-23T18:33:44.165Z,8.47
2022-10-23T18:36:16.582Z,10.27
2022-10-23T18:38:44.473Z,7.30
2022-10-23T18:41:12.605Z,8.40
2022-10-23T18:43:44.538Z,6.03
2022-10-23T18:46:12.768Z,8.93
2022-10-23T18:48:41.016Z,16.13
2022-10-23T18:51:16.196Z,9.33
2022-10-23T18:53:46.810Z,7.73
2022-10-23T18:56:15.489Z,11.30
2022-10-23T18:58:43.353Z,9.37
2022-10-23T19:01:11.180Z,7.33
2022-10-23T19:03:39.045Z,8.27
2022-10-23T19:06:07.644Z,9.13
2022-10-23T19:08:38.402Z,8.83
2022-10-23T19:11:07.331Z,14.17
2022-10-23T19:13:38.972Z,18.03
2022-10-23T19:16:09.585Z,8.57
2022-10-23T19:18:39.262Z,10.17
2022-10-23T19:21:07.661Z,13.30
2022-10-23T19:23:38.240Z,9.90
2022-10-23T19:26:08.758Z,12.60
2022-10-23T19:28:37.910Z,10.93
2022-10-23T19:31:07.518Z,10.97
2022-10-23T19:33:36.203Z,12.03
2022-10-23T19:36:05.729Z,12.70
2022-10-23T19:38:34.926Z,9.17
2022-10-23T19:41:04.670Z,8.00
2022-10-23T19:43:32.411Z,8.17
2022-10-23T19:46:05.106Z,7.40
2022-10-23T19:48:35.678Z,6.70
2022-10-23T19:51:03.465Z,7.20
2022-10-23T19:53:31.265Z,9.87
2022-10-23T19:56:08.629Z,5.90
2022-10-23T19:58:36.499Z,7.50
2022-10-23T20:01:13.102Z,6.70
2022-10-23T20:03:41.923Z,5.13
2022-10-23T20:06:11.192Z,6.37
2022-10-23T20:08:40.078Z,10.33
2022-10-23T20:11:09.930Z,11.03
2022-10-23T20:13:37.992Z,11.43
2022-10-23T20:16:06.174Z,9.90
2022-10-23T20:18:33.998Z,7.30
2022-10-23T20:21:03.146Z,7.33
2022-10-23T20:23:30.950Z,7.43
2022-10-23T20:26:05.497Z,7.40
2022-10-23T20:28:34.697Z,13.47
2022-10-23T20:31:06.326Z,7.40
2022-10-23T20:33:34.161Z,13.93
2022-10-23T20:36:02.068Z,8.97
2022-10-23T20:38:29.809Z,11.10
2022-10-23T20:41:00.193Z,10.77
2022-10-23T20:43:28.095Z,11.50
2022-10-23T20:45:57.185Z,9.27
2022-10-23T20:48:25.026Z,7.60
2022-10-23T20:50:52.788Z,6.47
2022-10-23T20:53:20.563Z,5.70
2022-10-23T20:55:48.385Z,7.10
2022-10-23T20:58:16.122Z,9.37
2022-10-23T21:00:43.922Z,7.17
2022-10-23T21:03:13.051Z,6.37
2022-10-23T21:05:40.842Z,10.10
2022-10-23T21:08:08.772Z,6.93
2022-10-23T21:10:36.584Z,5.93
2022-10-23T21:13:04.372Z,8.27
2022-10-23T21:15:32.138Z,7.60
2022-10-23T21:18:07.859Z,7.80
2022-10-23T21:20:48.373Z,5.87
2022-10-23T21:23:16.199Z,8.30
2022-10-23T21:25:44.791Z,6.27
2022-10-23T21:28:12.545Z,7.57
2022-10-23T21:30:41.027Z,9.53
2022-10-23T21:33:09.128Z,7.20
2022-10-23T21:35:43.206Z,10.80
2022-10-23T21:38:21.501Z,7.87
2022-10-23T21:40:49.241Z,6.53
2022-10-23T21:43:17.382Z,8.43
2022-10-23T21:45:45.194Z,6.67
2022-10-23T21:48:13.000Z,6.23
2022-10-23T21:50:40.834Z,6.37
2022-10-23T21:53:08.668Z,14.30
2022-10-23T21:55:37.784Z,6.03
2022-10-23T21:58:05.502Z,5.20
2022-10-23T22:00:33.261Z,8.53
2022-10-23T22:03:01.076Z,16.53
2022-10-23T22:05:30.539Z,8.87
2022-10-23T22:07:58.357Z,20.70
2022-10-23T22:10:26.157Z,8.30
2022-10-23T22:12:55.297Z,13.00
2022-10-23T22:15:23.121Z,13.97
2022-10-23T22:17:50.901Z,8.70
2022-10-23T22:20:19.176Z,14.60
2022-10-23T22:22:46.952Z,18.50
2022-10-23T22:25:14.734Z,6.40
2022-10-23T22:27:42.919Z,8.97
2022-10-23T22:30:13.428Z,8.80
2022-10-23T22:32:41.409Z,5.40
2022-10-23T22:35:09.567Z,8.40
2022-10-23T22:37:37.296Z,10.30
2022-10-23T22:40:06.053Z,5.77
2022-10-23T22:42:33.781Z,8.00
2022-10-23T22:45:01.555Z,8.80
2022-10-23T22:47:31.686Z,13.37
2022-10-23T22:49:59.423Z,12.07
2022-10-23T22:52:28.050Z,9.53
2022-10-23T22:54:55.821Z,8.70
2022-10-23T22:57:23.649Z,5.90
2022-10-23T23:02:26.953Z,8.13
2022-10-23T23:04:56.253Z,10.53
2022-10-23T23:07:23.986Z,7.33
2022-10-23T23:09:51.997Z,15.50
2022-10-23T23:12:19.746Z,9.63
2022-10-23T23:14:47.588Z,8.83
2022-10-23T23:17:15.409Z,13.70
2022-10-23T23:19:43.189Z,14.83
2022-10-23T23:22:12.339Z,8.77
2022-10-23T23:24:40.186Z,7.90
2022-10-23T23:27:08.076Z,9.33
2022-10-23T23:29:35.856Z,7.10
2022-10-23T23:32:05.957Z,7.43
2022-10-23T23:34:36.548Z,10.13
2022-10-23T23:37:04.401Z,8.60
2022-10-23T23:39:33.545Z,7.40
2022-10-23T23:42:01.451Z,7.30
2022-10-23T23:44:29.215Z,6.80
2022-10-23T23:46:57.012Z,7.90
2022-10-23T23:49:24.980Z,10.63
2022-10-23T23:51:52.870Z,7.73
2022-10-23T23:54:20.637Z,9.23
2022-10-23T23:56:49.773Z,6.33
2022-10-23T23:59:17.714Z,4.77
